Terminal Aerodrome Forecast
Issued by NWS

Home | Current Version | Previous Version | Graphics & Text | Print | Product List | Glossary On
Versions: 1 2 3 4 5 6 7 8 9 10 11 12 13 14 15 16 17
000
FTUS43 KMPX 232134 AAA
TAFAXN
TAF AMD
KAXN 232134Z 2322/2418 19011KT P6SM BKN250
     FM240500 22011KT P6SM SCT100 BKN200
     FM241400 28015G23KT P6SM -RA OVC080=

USA.gov is the U.S. government's official web portal to all federal, state and local government web resources and services.